sensor_id;sensor_type;location;lat;lon;timestamp;pressure;altitude;pressure_sealevel;temperature;humidity
21433;BME280;18592;49.708;10.900;2023-04-06T00:00:38;98987.03;;;5.93;38.42
21433;BME280;18592;49.708;10.900;2023-04-06T00:02:39;98979.97;;;5.92;39.00
21433;BME280;18592;49.708;10.900;2023-04-06T00:04:41;98982.03;;;5.90;38.27
21433;BME280;18592;49.708;10.900;2023-04-06T00:06:43;98980.59;;;5.87;38.34
21433;BME280;18592;49.708;10.900;2023-04-06T00:08:44;98978.94;;;5.86;38.30
21433;BME280;18592;49.708;10.900;2023-04-06T00:10:46;98981.19;;;5.83;38.49
21433;BME280;18592;49.708;10.900;2023-04-06T00:12:48;98981.59;;;5.79;38.50
21433;BME280;18592;49.708;10.900;2023-04-06T00:14:52;98971.22;;;5.76;38.92
21433;BME280;18592;49.708;10.900;2023-04-06T00:16:55;98978.91;;;5.73;38.90
21433;BME280;18592;49.708;10.900;2023-04-06T00:19:00;98979.34;;;5.70;38.66
21433;BME280;18592;49.708;10.900;2023-04-06T00:21:02;98982.25;;;5.68;38.71
21433;BME280;18592;49.708;10.900;2023-04-06T00:23:05;98978.94;;;5.66;38.74
21433;BME280;18592;49.708;10.900;2023-04-06T00:25:07;98971.25;;;5.63;39.02
21433;BME280;18592;49.708;10.900;2023-04-06T00:27:09;98979.75;;;5.60;38.31
21433;BME280;18592;49.708;10.900;2023-04-06T00:29:10;98972.06;;;5.57;39.04
21433;BME280;18592;49.708;10.900;2023-04-06T00:31:13;98974.16;;;5.55;38.84
21433;BME280;18592;49.708;10.900;2023-04-06T00:33:14;98975.19;;;5.54;38.53
21433;BME280;18592;49.708;10.900;2023-04-06T00:35:16;98974.38;;;5.54;39.10
21433;BME280;18592;49.708;10.900;2023-04-06T00:37:18;98968.53;;;5.50;39.05
21433;BME280;18592;49.708;10.900;2023-04-06T00:39:22;98968.75;;;5.49;38.88
21433;BME280;18592;49.708;10.900;2023-04-06T00:41:24;98972.91;;;5.45;38.91
21433;BME280;18592;49.708;10.900;2023-04-06T00:43:26;98972.28;;;5.43;39.31
21433;BME280;18592;49.708;10.900;2023-04-06T00:45:28;98970.81;;;5.40;39.08
21433;BME280;18592;49.708;10.900;2023-04-06T00:47:29;98974.16;;;5.36;39.41
21433;BME280;18592;49.708;10.900;2023-04-06T00:49:32;98973.53;;;5.34;39.13
21433;BME280;18592;49.708;10.900;2023-04-06T00:51:34;98966.69;;;5.31;39.13
21433;BME280;18592;49.708;10.900;2023-04-06T00:53:36;98967.94;;;5.29;39.03
21433;BME280;18592;49.708;10.900;2023-04-06T00:55:40;98969.97;;;5.27;39.15
21433;BME280;18592;49.708;10.900;2023-04-06T00:57:42;98971.22;;;5.24;39.30
21433;BME280;18592;49.708;10.900;2023-04-06T00:59:44;98967.91;;;5.22;39.34
21433;BME280;18592;49.708;10.900;2023-04-06T01:01:47;98968.97;;;5.21;39.23
21433;BME280;18592;49.708;10.900;2023-04-06T01:04:06;98967.28;;;5.20;38.93
21433;BME280;18592;49.708;10.900;2023-04-06T01:06:16;98966.06;;;5.16;39.73
21433;BME280;18592;49.708;10.900;2023-04-06T01:08:31;98958.97;;;5.15;39.70
21433;BME280;18592;49.708;10.900;2023-04-06T01:10:46;98960.22;;;5.12;39.65
21433;BME280;18592;49.708;10.900;2023-04-06T01:12:57;98956.25;;;5.08;39.28
21433;BME280;18592;49.708;10.900;2023-04-06T01:15:16;98956.47;;;5.07;39.51
21433;BME280;18592;49.708;10.900;2023-04-06T01:17:24;98956.88;;;5.04;39.18
21433;BME280;18592;49.708;10.900;2023-04-06T01:19:29;98960.63;;;5.03;39.51
21433;BME280;18592;49.708;10.900;2023-04-06T01:21:31;98959.56;;;4.97;39.32
21433;BME280;18592;49.708;10.900;2023-04-06T01:23:56;98953.72;;;4.94;39.37
21433;BME280;18592;49.708;10.900;2023-04-06T01:26:05;98956.84;;;4.91;39.75
21433;BME280;18592;49.708;10.900;2023-04-06T01:28:10;98954.13;;;4.91;39.84
21433;BME280;18592;49.708;10.900;2023-04-06T01:30:37;98943.78;;;4.88;39.32
21433;BME280;18592;49.708;10.900;2023-04-06T01:32:46;98945.00;;;4.85;39.86
21433;BME280;18592;49.708;10.900;2023-04-06T01:34:50;98952.47;;;4.83;40.03
21433;BME280;18592;49.708;10.900;2023-04-06T01:36:52;98942.72;;;4.82;39.43
21433;BME280;18592;49.708;10.900;2023-04-06T01:38:59;98942.09;;;4.80;39.80
21433;BME280;18592;49.708;10.900;2023-04-06T01:41:08;98938.75;;;4.78;39.32
21433;BME280;18592;49.708;10.900;2023-04-06T01:43:21;98941.66;;;4.77;39.82
21433;BME280;18592;49.708;10.900;2023-04-06T01:45:35;98939.19;;;4.75;40.14
21433;BME280;18592;49.708;10.900;2023-04-06T01:47:47;98936.03;;;4.72;39.65
21433;BME280;18592;49.708;10.900;2023-04-06T01:49:49;98930.63;;;4.72;40.22
21433;BME280;18592;49.708;10.900;2023-04-06T01:51:51;98935.41;;;4.70;40.22
21433;BME280;18592;49.708;10.900;2023-04-06T01:53:55;98933.75;;;4.69;40.02
21433;BME280;18592;49.708;10.900;2023-04-06T01:56:10;98930.63;;;4.65;40.01
21433;BME280;18592;49.708;10.900;2023-04-06T01:58:17;98935.38;;;4.63;40.42
21433;BME280;18592;49.708;10.900;2023-04-06T02:00:18;98940.38;;;4.60;40.10
21433;BME280;18592;49.708;10.900;2023-04-06T02:02:26;98935.38;;;4.57;40.36
21433;BME280;18592;49.708;10.900;2023-04-06T02:04:35;98942.47;;;4.58;40.03
21433;BME280;18592;49.708;10.900;2023-04-06T02:06:46;98938.06;;;4.57;39.96
21433;BME280;18592;49.708;10.900;2023-04-06T02:08:50;98941.19;;;4.54;40.10
21433;BME280;18592;49.708;10.900;2023-04-06T02:10:57;98936.19;;;4.50;40.19
21433;BME280;18592;49.708;10.900;2023-04-06T02:13:04;98936.41;;;4.49;40.18
21433;BME280;18592;49.708;10.900;2023-04-06T02:15:07;98937.41;;;4.48;40.64
21433;BME280;18592;49.708;10.900;2023-04-06T02:17:09;98931.22;;;4.47;40.01
21433;BME280;18592;49.708;10.900;2023-04-06T02:19:14;98936.16;;;4.44;40.36
21433;BME280;18592;49.708;10.900;2023-04-06T02:21:17;98933.69;;;4.42;40.38
21433;BME280;18592;49.708;10.900;2023-04-06T02:23:22;98932.84;;;4.42;40.83
21433;BME280;18592;49.708;10.900;2023-04-06T02:25:24;98927.84;;;4.39;40.32
21433;BME280;18592;49.708;10.900;2023-04-06T02:27:27;98934.09;;;4.39;40.79
21433;BME280;18592;49.708;10.900;2023-04-06T02:29:29;98938.66;;;4.39;40.79
21433;BME280;18592;49.708;10.900;2023-04-06T02:31:33;98927.00;;;4.38;40.58
21433;BME280;18592;49.708;10.900;2023-04-06T02:33:36;98929.09;;;4.36;40.89
21433;BME280;18592;49.708;10.900;2023-04-06T02:35:38;98936.34;;;4.36;40.61
21433;BME280;18592;49.708;10.900;2023-04-06T02:37:39;98929.50;;;4.33;40.65
21433;BME280;18592;49.708;10.900;2023-04-06T02:39:41;98935.09;;;4.32;41.00
21433;BME280;18592;49.708;10.900;2023-04-06T02:41:43;98932.59;;;4.30;40.89
21433;BME280;18592;49.708;10.900;2023-04-06T02:43:47;98924.50;;;4.30;41.10
21433;BME280;18592;49.708;10.900;2023-04-06T02:45:58;98929.09;;;4.30;41.11
21433;BME280;18592;49.708;10.900;2023-04-06T02:48:00;98927.41;;;4.29;40.93
21433;BME280;18592;49.708;10.900;2023-04-06T02:50:06;98926.97;;;4.25;41.00
21433;BME280;18592;49.708;10.900;2023-04-06T02:52:14;98924.69;;;4.22;41.55
21433;BME280;18592;49.708;10.900;2023-04-06T02:54:19;98926.56;;;4.22;40.65
21433;BME280;18592;49.708;10.900;2023-04-06T02:56:24;98929.84;;;4.17;40.92
21433;BME280;18592;49.708;10.900;2023-04-06T02:58:26;98930.88;;;4.16;40.93
21433;BME280;18592;49.708;10.900;2023-04-06T03:00:30;98932.75;;;4.16;41.38
21433;BME280;18592;49.708;10.900;2023-04-06T03:02:32;98930.25;;;4.14;40.60
21433;BME280;18592;49.708;10.900;2023-04-06T03:04:44;98930.25;;;4.14;41.33
21433;BME280;18592;49.708;10.900;2023-04-06T03:06:55;98934.19;;;4.12;41.16
21433;BME280;18592;49.708;10.900;2023-04-06T03:09:08;98929.19;;;4.09;40.76
21433;BME280;18592;49.708;10.900;2023-04-06T03:11:13;98933.75;;;4.08;41.49
21433;BME280;18592;49.708;10.900;2023-04-06T03:13:16;98927.50;;;4.08;41.39
21433;BME280;18592;49.708;10.900;2023-04-06T03:15:30;98938.13;;;4.09;41.39
21433;BME280;18592;49.708;10.900;2023-04-06T03:17:44;98925.03;;;4.06;41.61
21433;BME280;18592;49.708;10.900;2023-04-06T03:19:58;98931.88;;;4.02;40.60
21433;BME280;18592;49.708;10.900;2023-04-06T03:22:03;98934.97;;;3.99;41.04
21433;BME280;18592;49.708;10.900;2023-04-06T03:24:05;98935.97;;;3.98;40.78
21433;BME280;18592;49.708;10.900;2023-04-06T03:26:06;98935.97;;;3.98;41.33
21433;BME280;18592;49.708;10.900;2023-04-06T03:28:08;98937.03;;;3.97;41.42
21433;BME280;18592;49.708;10.900;2023-04-06T03:30:17;98930.97;;;3.95;41.44
21433;BME280;18592;49.708;10.900;2023-04-06T03:32:18;98934.72;;;3.94;41.66
21433;BME280;18592;49.708;10.900;2023-04-06T03:34:20;98934.72;;;3.94;41.27
21433;BME280;18592;49.708;10.900;2023-04-06T03:36:22;98931.41;;;3.92;41.29
21433;BME280;18592;49.708;10.900;2023-04-06T03:38:24;98926.00;;;3.92;41.62
21433;BME280;18592;49.708;10.900;2023-04-06T03:40:30;98938.66;;;3.92;41.37
21433;BME280;18592;49.708;10.900;2023-04-06T03:42:31;98937.81;;;3.91;41.17
21433;BME280;18592;49.708;10.900;2023-04-06T03:44:42;98935.13;;;3.91;41.72
21433;BME280;18592;49.708;10.900;2023-04-06T03:46:44;98935.31;;;3.90;41.27
21433;BME280;18592;49.708;10.900;2023-04-06T03:48:48;98933.88;;;3.87;41.61
21433;BME280;18592;49.708;10.900;2023-04-06T03:50:51;98934.88;;;3.86;41.70
21433;BME280;18592;49.708;10.900;2023-04-06T03:52:55;98935.91;;;3.85;41.99
21433;BME280;18592;49.708;10.900;2023-04-06T03:54:56;98937.97;;;3.83;41.69
21433;BME280;18592;49.708;10.900;2023-04-06T03:56:58;98943.34;;;3.83;41.72
21433;BME280;18592;49.708;10.900;2023-04-06T03:59:00;98936.28;;;3.82;41.73
21433;BME280;18592;49.708;10.900;2023-04-06T04:01:03;98934.66;;;3.81;41.84
21433;BME280;18592;49.708;10.900;2023-04-06T04:03:04;98938.34;;;3.80;42.13
21433;BME280;18592;49.708;10.900;2023-04-06T04:05:07;98941.06;;;3.80;41.88
21433;BME280;18592;49.708;10.900;2023-04-06T04:07:10;98941.91;;;3.80;42.31
21433;BME280;18592;49.708;10.900;2023-04-06T04:09:12;98945.81;;;3.78;42.07
21433;BME280;18592;49.708;10.900;2023-04-06T04:11:14;98944.13;;;3.77;42.16
21433;BME280;18592;49.708;10.900;2023-04-06T04:13:19;98948.72;;;3.76;42.24
21433;BME280;18592;49.708;10.900;2023-04-06T04:15:23;98958.03;;;3.74;41.94
21433;BME280;18592;49.708;10.900;2023-04-06T04:17:25;98954.28;;;3.75;41.45
21433;BME280;18592;49.708;10.900;2023-04-06T04:19:27;98954.69;;;3.72;42.19
21433;BME280;18592;49.708;10.900;2023-04-06T04:21:31;98956.56;;;3.71;41.96
21433;BME280;18592;49.708;10.900;2023-04-06T04:23:36;98957.38;;;3.72;41.89
21433;BME280;18592;49.708;10.900;2023-04-06T04:25:38;98953.03;;;3.71;42.05
21433;BME280;18592;49.708;10.900;2023-04-06T04:27:40;98949.06;;;3.67;42.18
21433;BME280;18592;49.708;10.900;2023-04-06T04:29:42;98949.88;;;3.67;41.71
21433;BME280;18592;49.708;10.900;2023-04-06T04:31:50;98952.59;;;3.67;41.82
21433;BME280;18592;49.708;10.900;2023-04-06T04:33:52;98953.63;;;3.66;41.69
21433;BME280;18592;49.708;10.900;2023-04-06T04:36:05;98960.88;;;3.66;42.01
21433;BME280;18592;49.708;10.900;2023-04-06T04:38:14;98955.88;;;3.63;41.64
21433;BME280;18592;49.708;10.900;2023-04-06T04:40:19;98954.88;;;3.64;41.74
21433;BME280;18592;49.708;10.900;2023-04-06T04:42:25;98954.03;;;3.63;42.23
21433;BME280;18592;49.708;10.900;2023-04-06T04:44:31;98959.41;;;3.63;42.06
21433;BME280;18592;49.708;10.900;2023-04-06T04:46:33;98957.75;;;3.62;42.40
21433;BME280;18592;49.708;10.900;2023-04-06T04:48:38;98962.28;;;3.62;42.80
21433;BME280;18592;49.708;10.900;2023-04-06T04:50:44;98957.94;;;3.61;42.01
21433;BME280;18592;49.708;10.900;2023-04-06T04:52:47;98962.72;;;3.59;42.50
21433;BME280;18592;49.708;10.900;2023-04-06T04:54:55;98968.91;;;3.59;42.44
21433;BME280;18592;49.708;10.900;2023-04-06T04:57:01;98970.13;;;3.57;42.46
21433;BME280;18592;49.708;10.900;2023-04-06T04:59:17;98974.88;;;3.55;42.07
21433;BME280;18592;49.708;10.900;2023-04-06T05:01:25;98970.13;;;3.57;42.41
21433;BME280;18592;49.708;10.900;2023-04-06T05:03:27;98972.66;;;3.58;42.53
21433;BME280;18592;49.708;10.900;2023-04-06T05:05:33;98975.53;;;3.57;42.50
21433;BME280;18592;49.708;10.900;2023-04-06T05:07:35;98981.56;;;3.59;42.96
21433;BME280;18592;49.708;10.900;2023-04-06T05:09:38;98975.53;;;3.57;42.37
21433;BME280;18592;49.708;10.900;2023-04-06T05:11:41;98973.88;;;3.56;42.74
21433;BME280;18592;49.708;10.900;2023-04-06T05:13:42;98974.72;;;3.56;42.52
21433;BME280;18592;49.708;10.900;2023-04-06T05:15:50;98972.66;;;3.58;43.02
21433;BME280;18592;49.708;10.900;2023-04-06T05:17:57;98975.34;;;3.58;42.68
21433;BME280;18592;49.708;10.900;2023-04-06T05:20:08;98976.34;;;3.57;42.48
21433;BME280;18592;49.708;10.900;2023-04-06T05:22:18;98969.94;;;3.58;42.77
21433;BME280;18592;49.708;10.900;2023-04-06T05:24:25;98970.78;;;3.59;42.65
21433;BME280;18592;49.708;10.900;2023-04-06T05:26:28;98969.94;;;3.58;42.47
21433;BME280;18592;49.708;10.900;2023-04-06T05:28:35;98965.41;;;3.59;43.08
21433;BME280;18592;49.708;10.900;2023-04-06T05:30:38;98972.19;;;3.55;43.15
21433;BME280;18592;49.708;10.900;2023-04-06T05:32:42;98972.66;;;3.58;42.53
21433;BME280;18592;49.708;10.900;2023-04-06T05:34:48;98968.47;;;3.56;42.92
21433;BME280;18592;49.708;10.900;2023-04-06T05:36:51;98970.13;;;3.57;42.83
21433;BME280;18592;49.708;10.900;2023-04-06T05:38:55;98966.63;;;3.56;42.83
21433;BME280;18592;49.708;10.900;2023-04-06T05:41:08;98978.22;;;3.57;43.52
21433;BME280;18592;49.708;10.900;2023-04-06T05:43:15;98980.53;;;3.60;43.11
21433;BME280;18592;49.708;10.900;2023-04-06T05:45:19;98981.56;;;3.59;42.92
21433;BME280;18592;49.708;10.900;2023-04-06T05:47:27;98985.06;;;3.59;43.16
21433;BME280;18592;49.708;10.900;2023-04-06T05:49:37;98981.56;;;3.59;42.79
21433;BME280;18592;49.708;10.900;2023-04-06T05:51:45;98982.19;;;3.61;42.83
21433;BME280;18592;49.708;10.900;2023-04-06T05:53:46;98989.25;;;3.62;43.46
21433;BME280;18592;49.708;10.900;2023-04-06T05:55:50;98994.25;;;3.65;42.79
21433;BME280;18592;49.708;10.900;2023-04-06T05:57:54;98987.22;;;3.64;43.48
21433;BME280;18592;49.708;10.900;2023-04-06T05:59:55;98989.69;;;3.65;43.65
21433;BME280;18592;49.708;10.900;2023-04-06T06:02:12;98983.06;;;3.68;43.30
21433;BME280;18592;49.708;10.900;2023-04-06T06:04:19;98989.94;;;3.70;42.84
21433;BME280;18592;49.708;10.900;2023-04-06T06:06:24;99000.13;;;3.75;43.11
21433;BME280;18592;49.708;10.900;2023-04-06T06:08:49;98991.84;;;3.76;43.65
21433;BME280;18592;49.708;10.900;2023-04-06T06:10:52;98990.41;;;3.80;43.17
21433;BME280;18592;49.708;10.900;2023-04-06T06:12:57;98992.53;;;3.85;43.71
21433;BME280;18592;49.708;10.900;2023-04-06T06:15:03;98989.25;;;3.90;43.45
21433;BME280;18592;49.708;10.900;2023-04-06T06:17:12;98988.25;;;3.97;43.25
21433;BME280;18592;49.708;10.900;2023-04-06T06:19:19;98987.44;;;4.03;43.33
21433;BME280;18592;49.708;10.900;2023-04-06T06:21:21;98991.47;;;4.14;43.29
21433;BME280;18592;49.708;10.900;2023-04-06T06:23:26;98990.06;;;4.24;43.20
21433;BME280;18592;49.708;10.900;2023-04-06T06:25:27;98987.63;;;4.36;42.91
21433;BME280;18592;49.708;10.900;2023-04-06T06:27:32;98994.31;;;4.46;42.52
21433;BME280;18592;49.708;10.900;2023-04-06T06:29:37;98986.28;;;4.60;42.64
21433;BME280;18592;49.708;10.900;2023-04-06T06:31:39;98991.50;;;4.74;43.08
21433;BME280;18592;49.708;10.900;2023-04-06T06:33:42;98994.47;;;4.92;43.16
21433;BME280;18592;49.708;10.900;2023-04-06T06:35:44;98986.78;;;5.09;42.89
21433;BME280;18592;49.708;10.900;2023-04-06T06:37:45;98990.34;;;5.29;43.21
21433;BME280;18592;49.708;10.900;2023-04-06T06:39:51;98990.78;;;5.52;43.23
21433;BME280;18592;49.708;10.900;2023-04-06T06:41:54;98992.03;;;5.76;43.25
21433;BME280;18592;49.708;10.900;2023-04-06T06:44:15;98988.03;;;6.05;43.54
21433;BME280;18592;49.708;10.900;2023-04-06T06:46:20;98989.84;;;6.30;44.00
21433;BME280;18592;49.708;10.900;2023-04-06T06:48:22;98994.34;;;6.56;43.97
21433;BME280;18592;49.708;10.900;2023-04-06T06:50:27;98994.25;;;6.82;43.87
21433;BME280;18592;49.708;10.900;2023-04-06T06:52:29;98988.03;;;7.07;44.10
21433;BME280;18592;49.708;10.900;2023-04-06T06:54:31;98990.59;;;7.33;43.96
21433;BME280;18592;49.708;10.900;2023-04-06T06:56:35;98988.94;;;7.56;44.09
21433;BME280;18592;49.708;10.900;2023-04-06T06:58:42;98986.22;;;7.81;44.29
21433;BME280;18592;49.708;10.900;2023-04-06T07:00:43;98980.16;;;8.04;44.19
21433;BME280;18592;49.708;10.900;2023-04-06T07:02:47;98977.66;;;8.27;44.54
21433;BME280;18592;49.708;10.900;2023-04-06T07:04:49;98981.56;;;8.49;44.32
21433;BME280;18592;49.708;10.900;2023-04-06T07:06:51;98977.06;;;8.73;44.00
21433;BME280;18592;49.708;10.900;2023-04-06T07:08:53;98977.19;;;8.96;44.26
21433;BME280;18592;49.708;10.900;2023-04-06T07:10:56;98974.53;;;9.19;44.44
21433;BME280;18592;49.708;10.900;2023-04-06T07:12:57;98977.59;;;9.41;44.59
21433;BME280;18592;49.708;10.900;2023-04-06T07:15:03;98974.88;;;9.64;44.00
21433;BME280;18592;49.708;10.900;2023-04-06T07:17:05;98978.72;;;9.86;44.04
21433;BME280;18592;49.708;10.900;2023-04-06T07:19:07;98972.66;;;10.07;44.39
21433;BME280;18592;49.708;10.900;2023-04-06T07:21:09;98974.22;;;10.27;43.96
21433;BME280;18592;49.708;10.900;2023-04-06T07:23:14;98968.38;;;10.46;43.45
21433;BME280;18592;49.708;10.900;2023-04-06T07:25:25;98970.38;;;10.62;43.62
21433;BME280;18592;49.708;10.900;2023-04-06T07:27:26;98973.16;;;10.79;43.51
21433;BME280;18592;49.708;10.900;2023-04-06T07:29:31;98969.66;;;10.95;43.35
21433;BME280;18592;49.708;10.900;2023-04-06T07:31:33;98966.41;;;11.10;43.12
21433;BME280;18592;49.708;10.900;2023-04-06T07:33:37;98973.19;;;11.24;43.15
21433;BME280;18592;49.708;10.900;2023-04-06T07:35:40;98973.72;;;11.37;42.85
21433;BME280;18592;49.708;10.900;2023-04-06T07:37:42;98970.91;;;11.49;42.84
21433;BME280;18592;49.708;10.900;2023-04-06T07:39:43;98978.31;;;11.65;43.17
21433;BME280;18592;49.708;10.900;2023-04-06T07:41:46;98962.47;;;11.79;42.45
21433;BME280;18592;49.708;10.900;2023-04-06T07:43:48;98969.50;;;11.91;42.55
21433;BME280;18592;49.708;10.900;2023-04-06T07:45:50;98965.31;;;12.05;42.30
21433;BME280;18592;49.708;10.900;2023-04-06T07:47:55;98970.44;;;12.19;42.00
21433;BME280;18592;49.708;10.900;2023-04-06T07:49:59;98963.53;;;12.33;42.12
21433;BME280;18592;49.708;10.900;2023-04-06T07:52:02;98953.28;;;12.45;41.99
21433;BME280;18592;49.708;10.900;2023-04-06T07:54:06;98963.63;;;12.59;41.77
21433;BME280;18592;49.708;10.900;2023-04-06T07:56:08;98963.22;;;12.72;41.69
21433;BME280;18592;49.708;10.900;2023-04-06T07:58:10;98960.38;;;12.84;41.57
21433;BME280;18592;49.708;10.900;2023-04-06T08:00:12;98961.63;;;12.98;41.58
21433;BME280;18592;49.708;10.900;2023-04-06T08:02:14;98964.25;;;13.10;41.48
21433;BME280;18592;49.708;10.900;2023-04-06T08:04:16;98960.28;;;13.22;41.22
21433;BME280;18592;49.708;10.900;2023-04-06T08:06:17;98962.63;;;13.35;41.22
21433;BME280;18592;49.708;10.900;2023-04-06T08:08:22;98961.59;;;13.47;41.03
21433;BME280;18592;49.708;10.900;2023-04-06T08:10:23;98954.63;;;13.61;40.82
21433;BME280;18592;49.708;10.900;2023-04-06T08:12:25;98961.59;;;13.73;40.92
21433;BME280;18592;49.708;10.900;2023-04-06T08:14:29;98948.81;;;13.89;40.73
21433;BME280;18592;49.708;10.900;2023-04-06T08:16:31;98958.75;;;14.00;40.47
21433;BME280;18592;49.708;10.900;2023-04-06T08:18:32;98948.44;;;14.12;40.44
21433;BME280;18592;49.708;10.900;2023-04-06T08:20:34;98951.53;;;14.26;40.46
21433;BME280;18592;49.708;10.900;2023-04-06T08:22:36;98955.47;;;14.40;40.44
21433;BME280;18592;49.708;10.900;2023-04-06T08:24:40;98953.63;;;14.50;40.27
21433;BME280;18592;49.708;10.900;2023-04-06T08:26:41;98958.63;;;14.63;40.12
21433;BME280;18592;49.708;10.900;2023-04-06T08:28:43;98947.16;;;14.77;40.05
21433;BME280;18592;49.708;10.900;2023-04-06T08:30:47;98949.66;;;14.88;39.74
21433;BME280;18592;49.708;10.900;2023-04-06T08:32:49;98949.44;;;15.00;40.14
21433;BME280;18592;49.708;10.900;2023-04-06T08:34:54;98951.66;;;15.13;39.74
21433;BME280;18592;49.708;10.900;2023-04-06T08:36:56;98951.13;;;15.26;39.70
21433;BME280;18592;49.708;10.900;2023-04-06T08:39:01;98950.63;;;15.39;39.58
21433;BME280;18592;49.708;10.900;2023-04-06T08:41:13;98952.88;;;15.52;39.72
21433;BME280;18592;49.708;10.900;2023-04-06T08:43:16;98952.06;;;15.67;39.70
21433;BME280;18592;49.708;10.900;2023-04-06T08:45:19;98951.50;;;15.80;39.62
21433;BME280;18592;49.708;10.900;2023-04-06T08:47:22;98941.88;;;15.93;39.40
21433;BME280;18592;49.708;10.900;2023-04-06T08:49:25;98937.75;;;16.05;39.57
21433;BME280;18592;49.708;10.900;2023-04-06T08:51:28;98950.09;;;16.18;39.32
21433;BME280;18592;49.708;10.900;2023-04-06T08:53:33;98942.66;;;16.28;39.08
21433;BME280;18592;49.708;10.900;2023-04-06T08:55:38;98942.34;;;16.40;38.99
21433;BME280;18592;49.708;10.900;2023-04-06T08:57:40;98943.97;;;16.51;38.83
21433;BME280;18592;49.708;10.900;2023-04-06T08:59:44;98940.94;;;16.63;38.67
21433;BME280;18592;49.708;10.900;2023-04-06T09:01:46;98933.47;;;16.73;38.65
21433;BME280;18592;49.708;10.900;2023-04-06T09:03:49;98938.38;;;16.86;38.42
21433;BME280;18592;49.708;10.900;2023-04-06T09:05:53;98939.97;;;16.97;38.45
21433;BME280;18592;49.708;10.900;2023-04-06T09:08:04;98929.97;;;17.11;38.37
21433;BME280;18592;49.708;10.900;2023-04-06T09:10:07;98931.78;;;17.26;38.55
21433;BME280;18592;49.708;10.900;2023-04-06T09:12:09;98936.38;;;17.41;38.28
21433;BME280;18592;49.708;10.900;2023-04-06T09:14:14;98935.78;;;17.54;38.50
21433;BME280;18592;49.708;10.900;2023-04-06T09:16:20;98934.03;;;17.68;38.65
21433;BME280;18592;49.708;10.900;2023-04-06T09:18:29;98932.25;;;17.82;38.29
21433;BME280;18592;49.708;10.900;2023-04-06T09:20:31;98931.59;;;17.95;37.94
21433;BME280;18592;49.708;10.900;2023-04-06T09:22:37;98923.47;;;18.09;38.28
21433;BME280;18592;49.708;10.900;2023-04-06T09:24:47;98925.81;;;18.20;38.14
21433;BME280;18592;49.708;10.900;2023-04-06T09:26:52;98922.91;;;18.35;38.17
21433;BME280;18592;49.708;10.900;2023-04-06T09:28:56;98922.25;;;18.49;37.97
21433;BME280;18592;49.708;10.900;2023-04-06T09:30:58;98924.56;;;18.60;37.93
21433;BME280;18592;49.708;10.900;2023-04-06T09:33:00;98925.28;;;18.71;37.86
21433;BME280;18592;49.708;10.900;2023-04-06T09:35:06;98918.53;;;18.82;37.39
21433;BME280;18592;49.708;10.900;2023-04-06T09:37:19;98919.50;;;18.91;37.25
21433;BME280;18592;49.708;10.900;2023-04-06T09:39:22;98911.59;;;19.03;36.98
21433;BME280;18592;49.708;10.900;2023-04-06T09:41:32;98911.44;;;19.13;36.96
21433;BME280;18592;49.708;10.900;2023-04-06T09:43:34;98911.31;;;19.23;37.14
21433;BME280;18592;49.708;10.900;2023-04-06T09:45:35;98908.38;;;19.33;37.12
21433;BME280;18592;49.708;10.900;2023-04-06T09:47:38;98906.63;;;19.42;36.88
21433;BME280;18592;49.708;10.900;2023-04-06T09:49:46;98901.22;;;19.51;36.29
21433;BME280;18592;49.708;10.900;2023-04-06T09:51:54;98901.38;;;19.59;36.52
21433;BME280;18592;49.708;10.900;2023-04-06T09:53:58;98910.03;;;19.72;36.42
21433;BME280;18592;49.708;10.900;2023-04-06T09:56:08;98902.69;;;19.81;36.70
21433;BME280;18592;49.708;10.900;2023-04-06T09:58:19;98895.03;;;19.91;36.22
21433;BME280;18592;49.708;10.900;2023-04-06T10:00:28;98897.31;;;20.03;35.94
21433;BME280;18592;49.708;10.900;2023-04-06T10:07:10;98889.81;;;20.36;35.82
21433;BME280;18592;49.708;10.900;2023-04-06T10:09:13;98889.63;;;20.46;35.89
21433;BME280;18592;49.708;10.900;2023-04-06T10:11:15;98885.50;;;20.57;35.79
21433;BME280;18592;49.708;10.900;2023-04-06T10:13:18;98875.84;;;20.68;35.59
21433;BME280;18592;49.708;10.900;2023-04-06T10:15:21;98880.06;;;20.79;35.62
21433;BME280;18592;49.708;10.900;2023-04-06T10:17:23;98883.44;;;20.89;35.67
21433;BME280;18592;49.708;10.900;2023-04-06T10:19:34;98880.94;;;21.02;35.39
21433;BME280;18592;49.708;10.900;2023-04-06T10:21:40;98872.72;;;21.10;35.54
21433;BME280;18592;49.708;10.900;2023-04-06T10:23:51;98875.91;;;21.17;34.67
21433;BME280;18592;49.708;10.900;2023-04-06T10:25:55;98878.25;;;21.24;35.01
21433;BME280;18592;49.708;10.900;2023-04-06T10:28:08;98880.28;;;21.32;34.36
21433;BME280;18592;49.708;10.900;2023-04-06T10:30:10;98882.31;;;21.40;34.62
21433;BME280;18592;49.708;10.900;2023-04-06T10:32:14;98874.66;;;21.45;34.29
21433;BME280;18592;49.708;10.900;2023-04-06T10:34:15;98879.78;;;21.52;33.82
21433;BME280;18592;49.708;10.900;2023-04-06T10:36:27;98880.28;;;21.54;33.64
21433;BME280;18592;49.708;10.900;2023-04-06T10:38:40;98868.69;;;21.52;33.05
21433;BME280;18592;49.708;10.900;2023-04-06T10:40:42;98872.91;;;21.49;33.56
21433;BME280;18592;49.708;10.900;2023-04-06T10:42:44;98866.34;;;21.45;33.42
21433;BME280;18592;49.708;10.900;2023-04-06T10:44:49;98866.69;;;21.44;33.35
21433;BME280;18592;49.708;10.900;2023-04-06T10:46:59;98866.34;;;21.45;33.05
21433;BME280;18592;49.708;10.900;2023-04-06T10:49:11;98855.78;;;21.47;32.98
21433;BME280;18592;49.708;10.900;2023-04-06T10:51:17;98864.16;;;21.56;33.13
21433;BME280;18592;49.708;10.900;2023-04-06T10:53:25;98855.69;;;21.61;33.07
21433;BME280;18592;49.708;10.900;2023-04-06T10:55:28;98861.63;;;21.68;33.21
21433;BME280;18592;49.708;10.900;2023-04-06T10:57:30;98859.25;;;21.75;33.11
21433;BME280;18592;49.708;10.900;2023-04-06T10:59:34;98854.06;;;21.82;32.46
21433;BME280;18592;49.708;10.900;2023-04-06T11:01:36;98858.34;;;21.88;32.74
21433;BME280;18592;49.708;10.900;2023-04-06T11:03:48;98852.69;;;21.93;32.89